LFML 270630Z AUTO 32012KT 9999 FEW012 20/12 Q1008 NOSIG

ElémentsDécodage
LFML Station météo située sur l'aérodrome de MARSEILLE PROVENCE
270630Z émis le 27 du mois à 06h30 UTC
AUTO Bulletin édité par un automate
32012KT vent du 320°, 12 noeuds
9999 visibilité horizontale supérieure à 10 Km
FEW012 nuages rares (1/8 à 2/8) à 1200 pieds
20/12 température 20°C, point de rosée 12°C
 soit une humidité relative de 60%
Q1008 la pression au niveau de la mer (QNH) est de 1008 hPa
NOSIG Pas de changement significatif prévu au cours des deux heures suivant l'heure de l'observation